sensor_id;sensor_type;location;lat;lon;timestamp;P1;durP1;ratioP1;P2;durP2;ratioP2
21822;SDS011;11074;48.596;9.238;2023-03-01T00:00:54;20.05;;;11.75;;
21822;SDS011;11074;48.596;9.238;2023-03-01T00:03:32;18.50;;;11.50;;
21822;SDS011;11074;48.596;9.238;2023-03-01T00:05:59;18.48;;;10.63;;
21822;SDS011;11074;48.596;9.238;2023-03-01T00:08:25;18.42;;;10.52;;
21822;SDS011;11074;48.596;9.238;2023-03-01T00:13:43;18.00;;;11.32;;
21822;SDS011;11074;48.596;9.238;2023-03-01T00:16:13;20.45;;;11.65;;
21822;SDS011;11074;48.596;9.238;2023-03-01T00:18:42;20.98;;;11.90;;
21822;SDS011;11074;48.596;9.238;2023-03-01T00:21:09;19.98;;;11.93;;
21822;SDS011;11074;48.596;9.238;2023-03-01T00:23:35;18.35;;;11.63;;
21822;SDS011;11074;48.596;9.238;2023-03-01T00:26:02;18.33;;;10.88;;
21822;SDS011;11074;48.596;9.238;2023-03-01T00:28:32;18.77;;;11.55;;
21822;SDS011;11074;48.596;9.238;2023-03-01T00:31:08;15.43;;;10.40;;
21822;SDS011;11074;48.596;9.238;2023-03-01T00:33:43;17.77;;;10.70;;
21822;SDS011;11074;48.596;9.238;2023-03-01T00:36:09;18.15;;;11.07;;
21822;SDS011;11074;48.596;9.238;2023-03-01T00:38:38;18.35;;;10.85;;
21822;SDS011;11074;48.596;9.238;2023-03-01T00:41:09;16.83;;;10.77;;
21822;SDS011;11074;48.596;9.238;2023-03-01T00:43:37;19.20;;;11.05;;
21822;SDS011;11074;48.596;9.238;2023-03-01T00:46:07;17.25;;;10.82;;
21822;SDS011;11074;48.596;9.238;2023-03-01T00:48:39;17.23;;;10.98;;
21822;SDS011;11074;48.596;9.238;2023-03-01T00:53:51;19.35;;;11.07;;
21822;SDS011;11074;48.596;9.238;2023-03-01T00:56:21;16.80;;;10.75;;
21822;SDS011;11074;48.596;9.238;2023-03-01T00:58:47;20.40;;;10.60;;
21822;SDS011;11074;48.596;9.238;2023-03-01T01:01:15;18.83;;;11.00;;
21822;SDS011;11074;48.596;9.238;2023-03-01T01:06:25;23.77;;;12.07;;
21822;SDS011;11074;48.596;9.238;2023-03-01T01:08:54;20.63;;;12.23;;
21822;SDS011;11074;48.596;9.238;2023-03-01T01:11:22;20.65;;;12.27;;
21822;SDS011;11074;48.596;9.238;2023-03-01T01:13:51;20.80;;;12.57;;
21822;SDS011;11074;48.596;9.238;2023-03-01T01:16:17;19.38;;;11.45;;
21822;SDS011;11074;48.596;9.238;2023-03-01T01:18:45;19.48;;;11.90;;
21822;SDS011;11074;48.596;9.238;2023-03-01T01:21:12;19.10;;;11.23;;
21822;SDS011;11074;48.596;9.238;2023-03-01T01:23:41;17.35;;;10.95;;
21822;SDS011;11074;48.596;9.238;2023-03-01T01:26:10;18.77;;;11.63;;
21822;SDS011;11074;48.596;9.238;2023-03-01T01:28:44;20.92;;;12.10;;
21822;SDS011;11074;48.596;9.238;2023-03-01T01:31:11;17.63;;;11.70;;
21822;SDS011;11074;48.596;9.238;2023-03-01T01:33:37;20.25;;;11.82;;
21822;SDS011;11074;48.596;9.238;2023-03-01T01:36:05;20.17;;;11.35;;
21822;SDS011;11074;48.596;9.238;2023-03-01T01:38:32;18.98;;;12.30;;
21822;SDS011;11074;48.596;9.238;2023-03-01T01:40:59;18.77;;;11.55;;
21822;SDS011;11074;48.596;9.238;2023-03-01T01:43:29;19.15;;;12.48;;
21822;SDS011;11074;48.596;9.238;2023-03-01T01:46:03;20.67;;;12.30;;
21822;SDS011;11074;48.596;9.238;2023-03-01T01:49:06;23.85;;;12.00;;
21822;SDS011;11074;48.596;9.238;2023-03-01T01:51:44;21.60;;;12.13;;
21822;SDS011;11074;48.596;9.238;2023-03-01T01:54:38;21.13;;;12.88;;
21822;SDS011;11074;48.596;9.238;2023-03-01T01:57:12;20.50;;;12.55;;
21822;SDS011;11074;48.596;9.238;2023-03-01T01:59:45;22.52;;;12.55;;
21822;SDS011;11074;48.596;9.238;2023-03-01T02:02:18;21.95;;;12.90;;
21822;SDS011;11074;48.596;9.238;2023-03-01T02:04:45;20.50;;;12.15;;
21822;SDS011;11074;48.596;9.238;2023-03-01T02:07:18;20.58;;;12.55;;
21822;SDS011;11074;48.596;9.238;2023-03-01T02:09:50;23.75;;;12.93;;
21822;SDS011;11074;48.596;9.238;2023-03-01T02:12:18;19.77;;;12.57;;
21822;SDS011;11074;48.596;9.238;2023-03-01T02:14:48;22.08;;;12.73;;
21822;SDS011;11074;48.596;9.238;2023-03-01T02:17:14;21.58;;;12.77;;
21822;SDS011;11074;48.596;9.238;2023-03-01T02:19:47;21.02;;;13.30;;
21822;SDS011;11074;48.596;9.238;2023-03-01T02:22:35;24.10;;;14.00;;
21822;SDS011;11074;48.596;9.238;2023-03-01T02:25:20;21.70;;;12.63;;
21822;SDS011;11074;48.596;9.238;2023-03-01T02:30:43;22.90;;;13.55;;
21822;SDS011;11074;48.596;9.238;2023-03-01T02:33:33;21.92;;;12.68;;
21822;SDS011;11074;48.596;9.238;2023-03-01T02:36:19;20.75;;;13.18;;
21822;SDS011;11074;48.596;9.238;2023-03-01T02:38:50;19.63;;;12.55;;
21822;SDS011;11074;48.596;9.238;2023-03-01T02:41:21;20.00;;;12.57;;
21822;SDS011;11074;48.596;9.238;2023-03-01T02:43:49;22.52;;;12.93;;
21822;SDS011;11074;48.596;9.238;2023-03-01T02:46:22;21.67;;;13.02;;
21822;SDS011;11074;48.596;9.238;2023-03-01T02:48:51;24.27;;;13.70;;
21822;SDS011;11074;48.596;9.238;2023-03-01T02:57:21;22.33;;;13.13;;
21822;SDS011;11074;48.596;9.238;2023-03-01T02:59:48;22.67;;;13.82;;
21822;SDS011;11074;48.596;9.238;2023-03-01T03:02:24;23.17;;;14.52;;
21822;SDS011;11074;48.596;9.238;2023-03-01T03:08:02;21.80;;;12.93;;
21822;SDS011;11074;48.596;9.238;2023-03-01T03:10:29;21.13;;;13.30;;
21822;SDS011;11074;48.596;9.238;2023-03-01T03:13:02;24.67;;;13.77;;
21822;SDS011;11074;48.596;9.238;2023-03-01T03:15:36;22.45;;;13.10;;
21822;SDS011;11074;48.596;9.238;2023-03-01T03:18:05;20.90;;;13.50;;
21822;SDS011;11074;48.596;9.238;2023-03-01T03:20:34;21.35;;;12.77;;
21822;SDS011;11074;48.596;9.238;2023-03-01T03:23:01;22.00;;;13.40;;
21822;SDS011;11074;48.596;9.238;2023-03-01T03:25:28;24.88;;;14.32;;
21822;SDS011;11074;48.596;9.238;2023-03-01T03:27:54;22.50;;;13.65;;
21822;SDS011;11074;48.596;9.238;2023-03-01T03:30:21;21.80;;;12.90;;
21822;SDS011;11074;48.596;9.238;2023-03-01T03:32:53;23.55;;;13.70;;
21822;SDS011;11074;48.596;9.238;2023-03-01T03:35:34;20.52;;;12.52;;
21822;SDS011;11074;48.596;9.238;2023-03-01T03:38:08;25.33;;;13.57;;
21822;SDS011;11074;48.596;9.238;2023-03-01T03:40:47;22.08;;;12.80;;
21822;SDS011;11074;48.596;9.238;2023-03-01T03:43:17;23.52;;;13.75;;
21822;SDS011;11074;48.596;9.238;2023-03-01T03:45:47;22.95;;;13.43;;
21822;SDS011;11074;48.596;9.238;2023-03-01T03:48:16;21.33;;;13.23;;
21822;SDS011;11074;48.596;9.238;2023-03-01T03:50:47;23.40;;;13.45;;
21822;SDS011;11074;48.596;9.238;2023-03-01T03:53:21;21.45;;;13.57;;
21822;SDS011;11074;48.596;9.238;2023-03-01T03:55:49;21.48;;;13.63;;
21822;SDS011;11074;48.596;9.238;2023-03-01T03:58:16;18.98;;;12.88;;
21822;SDS011;11074;48.596;9.238;2023-03-01T04:00:45;21.08;;;13.45;;
21822;SDS011;11074;48.596;9.238;2023-03-01T04:03:17;21.48;;;13.13;;
21822;SDS011;11074;48.596;9.238;2023-03-01T04:05:45;20.23;;;12.95;;
21822;SDS011;11074;48.596;9.238;2023-03-01T04:08:12;21.05;;;13.32;;
21822;SDS011;11074;48.596;9.238;2023-03-01T04:10:39;22.08;;;13.00;;
21822;SDS011;11074;48.596;9.238;2023-03-01T04:13:11;20.85;;;12.93;;
21822;SDS011;11074;48.596;9.238;2023-03-01T04:15:40;22.48;;;13.23;;
21822;SDS011;11074;48.596;9.238;2023-03-01T04:18:08;21.73;;;13.55;;
21822;SDS011;11074;48.596;9.238;2023-03-01T04:20:37;20.80;;;13.23;;
21822;SDS011;11074;48.596;9.238;2023-03-01T04:25:42;22.10;;;13.90;;
21822;SDS011;11074;48.596;9.238;2023-03-01T04:28:14;22.70;;;13.32;;
21822;SDS011;11074;48.596;9.238;2023-03-01T04:30:40;24.02;;;13.93;;
21822;SDS011;11074;48.596;9.238;2023-03-01T04:33:06;24.23;;;14.13;;
21822;SDS011;11074;48.596;9.238;2023-03-01T04:35:36;23.02;;;13.05;;
21822;SDS011;11074;48.596;9.238;2023-03-01T04:38:03;20.73;;;13.13;;
21822;SDS011;11074;48.596;9.238;2023-03-01T04:40:30;24.15;;;13.60;;
21822;SDS011;11074;48.596;9.238;2023-03-01T04:42:56;23.55;;;14.07;;
21822;SDS011;11074;48.596;9.238;2023-03-01T04:45:22;22.63;;;13.95;;
21822;SDS011;11074;48.596;9.238;2023-03-01T04:47:48;20.38;;;12.98;;
21822;SDS011;11074;48.596;9.238;2023-03-01T04:50:15;22.60;;;13.93;;
21822;SDS011;11074;48.596;9.238;2023-03-01T04:52:45;23.40;;;13.88;;
21822;SDS011;11074;48.596;9.238;2023-03-01T04:55:12;21.02;;;13.10;;
21822;SDS011;11074;48.596;9.238;2023-03-01T04:57:38;21.35;;;13.07;;
21822;SDS011;11074;48.596;9.238;2023-03-01T05:00:05;19.45;;;12.50;;
21822;SDS011;11074;48.596;9.238;2023-03-01T05:08:00;24.90;;;13.50;;
21822;SDS011;11074;48.596;9.238;2023-03-01T05:10:30;21.90;;;13.43;;
21822;SDS011;11074;48.596;9.238;2023-03-01T05:12:59;21.20;;;13.02;;
21822;SDS011;11074;48.596;9.238;2023-03-01T05:15:27;21.75;;;13.18;;
21822;SDS011;11074;48.596;9.238;2023-03-01T05:17:55;23.40;;;13.40;;
21822;SDS011;11074;48.596;9.238;2023-03-01T05:20:24;21.58;;;13.73;;
21822;SDS011;11074;48.596;9.238;2023-03-01T05:22:55;25.85;;;13.88;;
21822;SDS011;11074;48.596;9.238;2023-03-01T05:25:24;23.15;;;14.07;;
21822;SDS011;11074;48.596;9.238;2023-03-01T05:27:50;24.55;;;13.98;;
21822;SDS011;11074;48.596;9.238;2023-03-01T05:30:16;22.45;;;13.75;;
21822;SDS011;11074;48.596;9.238;2023-03-01T05:32:44;25.02;;;14.60;;
21822;SDS011;11074;48.596;9.238;2023-03-01T05:35:15;21.75;;;13.30;;
21822;SDS011;11074;48.596;9.238;2023-03-01T05:37:43;24.00;;;14.43;;
21822;SDS011;11074;48.596;9.238;2023-03-01T05:40:13;22.50;;;13.38;;
21822;SDS011;11074;48.596;9.238;2023-03-01T05:42:44;22.33;;;13.45;;
21822;SDS011;11074;48.596;9.238;2023-03-01T05:45:22;24.50;;;14.27;;
21822;SDS011;11074;48.596;9.238;2023-03-01T05:47:51;23.27;;;13.73;;
21822;SDS011;11074;48.596;9.238;2023-03-01T05:50:27;23.35;;;14.15;;
21822;SDS011;11074;48.596;9.238;2023-03-01T05:53:01;24.52;;;13.13;;
21822;SDS011;11074;48.596;9.238;2023-03-01T05:55:31;22.50;;;13.77;;
21822;SDS011;11074;48.596;9.238;2023-03-01T05:57:58;23.50;;;13.73;;
21822;SDS011;11074;48.596;9.238;2023-03-01T06:00:26;26.52;;;14.45;;
21822;SDS011;11074;48.596;9.238;2023-03-01T06:02:54;23.17;;;14.48;;
21822;SDS011;11074;48.596;9.238;2023-03-01T06:05:22;23.60;;;14.50;;
21822;SDS011;11074;48.596;9.238;2023-03-01T06:07:49;23.20;;;14.18;;
21822;SDS011;11074;48.596;9.238;2023-03-01T06:10:15;24.48;;;14.02;;
21822;SDS011;11074;48.596;9.238;2023-03-01T06:12:43;22.50;;;14.52;;
21822;SDS011;11074;48.596;9.238;2023-03-01T06:15:09;24.75;;;14.65;;
21822;SDS011;11074;48.596;9.238;2023-03-01T06:17:40;21.85;;;14.07;;
21822;SDS011;11074;48.596;9.238;2023-03-01T06:22:39;21.67;;;13.82;;
21822;SDS011;11074;48.596;9.238;2023-03-01T06:25:05;24.65;;;14.88;;
21822;SDS011;11074;48.596;9.238;2023-03-01T06:27:32;23.75;;;13.98;;
21822;SDS011;11074;48.596;9.238;2023-03-01T06:29:58;23.33;;;14.45;;
21822;SDS011;11074;48.596;9.238;2023-03-01T06:32:23;25.38;;;15.48;;
21822;SDS011;11074;48.596;9.238;2023-03-01T06:34:49;25.30;;;14.77;;
21822;SDS011;11074;48.596;9.238;2023-03-01T06:37:15;26.00;;;15.68;;
21822;SDS011;11074;48.596;9.238;2023-03-01T06:39:41;22.58;;;15.02;;
21822;SDS011;11074;48.596;9.238;2023-03-01T06:42:07;24.65;;;14.55;;
21822;SDS011;11074;48.596;9.238;2023-03-01T06:44:35;26.23;;;15.20;;
21822;SDS011;11074;48.596;9.238;2023-03-01T06:47:01;26.13;;;14.95;;
21822;SDS011;11074;48.596;9.238;2023-03-01T06:49:28;27.95;;;16.35;;
21822;SDS011;11074;48.596;9.238;2023-03-01T06:51:54;25.88;;;15.00;;
21822;SDS011;11074;48.596;9.238;2023-03-01T06:54:19;28.13;;;15.70;;
21822;SDS011;11074;48.596;9.238;2023-03-01T06:56:47;27.17;;;15.38;;
21822;SDS011;11074;48.596;9.238;2023-03-01T06:59:14;25.48;;;15.65;;
21822;SDS011;11074;48.596;9.238;2023-03-01T07:01:41;24.38;;;15.18;;
21822;SDS011;11074;48.596;9.238;2023-03-01T07:04:07;27.25;;;15.52;;
21822;SDS011;11074;48.596;9.238;2023-03-01T07:06:32;28.67;;;16.23;;
21822;SDS011;11074;48.596;9.238;2023-03-01T07:08:58;27.20;;;16.15;;
21822;SDS011;11074;48.596;9.238;2023-03-01T07:11:24;26.63;;;16.02;;
21822;SDS011;11074;48.596;9.238;2023-03-01T07:13:49;30.23;;;16.95;;
21822;SDS011;11074;48.596;9.238;2023-03-01T07:16:15;28.38;;;16.05;;
21822;SDS011;11074;48.596;9.238;2023-03-01T07:18:41;25.95;;;15.45;;
21822;SDS011;11074;48.596;9.238;2023-03-01T07:21:08;25.48;;;15.23;;
21822;SDS011;11074;48.596;9.238;2023-03-01T07:23:36;24.55;;;15.10;;
21822;SDS011;11074;48.596;9.238;2023-03-01T07:26:01;27.33;;;15.13;;
21822;SDS011;11074;48.596;9.238;2023-03-01T07:28:27;24.33;;;15.32;;
21822;SDS011;11074;48.596;9.238;2023-03-01T07:30:53;28.70;;;15.80;;
21822;SDS011;11074;48.596;9.238;2023-03-01T07:33:20;26.58;;;15.70;;
21822;SDS011;11074;48.596;9.238;2023-03-01T07:35:45;25.75;;;16.08;;
21822;SDS011;11074;48.596;9.238;2023-03-01T07:38:11;26.20;;;15.48;;
21822;SDS011;11074;48.596;9.238;2023-03-01T07:40:36;26.95;;;15.90;;
21822;SDS011;11074;48.596;9.238;2023-03-01T07:43:02;26.40;;;16.13;;
21822;SDS011;11074;48.596;9.238;2023-03-01T07:45:28;26.13;;;15.95;;
21822;SDS011;11074;48.596;9.238;2023-03-01T07:47:54;27.63;;;15.38;;
21822;SDS011;11074;48.596;9.238;2023-03-01T07:50:21;25.23;;;15.50;;
21822;SDS011;11074;48.596;9.238;2023-03-01T07:52:48;24.77;;;15.75;;
21822;SDS011;11074;48.596;9.238;2023-03-01T07:55:15;22.60;;;14.57;;
21822;SDS011;11074;48.596;9.238;2023-03-01T07:57:41;25.70;;;14.90;;
21822;SDS011;11074;48.596;9.238;2023-03-01T08:00:08;24.17;;;14.45;;
21822;SDS011;11074;48.596;9.238;2023-03-01T08:02:36;24.60;;;14.93;;
21822;SDS011;11074;48.596;9.238;2023-03-01T08:05:03;25.65;;;15.65;;
21822;SDS011;11074;48.596;9.238;2023-03-01T08:07:29;29.65;;;15.60;;
21822;SDS011;11074;48.596;9.238;2023-03-01T08:09:55;25.00;;;15.60;;
21822;SDS011;11074;48.596;9.238;2023-03-01T08:12:21;25.25;;;15.85;;
21822;SDS011;11074;48.596;9.238;2023-03-01T08:14:46;24.65;;;15.55;;
21822;SDS011;11074;48.596;9.238;2023-03-01T08:17:15;25.27;;;16.25;;
21822;SDS011;11074;48.596;9.238;2023-03-01T08:19:42;25.75;;;15.60;;
21822;SDS011;11074;48.596;9.238;2023-03-01T08:22:08;25.58;;;15.95;;
21822;SDS011;11074;48.596;9.238;2023-03-01T08:24:33;26.85;;;15.75;;
21822;SDS011;11074;48.596;9.238;2023-03-01T08:26:59;26.30;;;16.45;;
21822;SDS011;11074;48.596;9.238;2023-03-01T08:29:25;27.25;;;14.88;;
21822;SDS011;11074;48.596;9.238;2023-03-01T08:31:51;23.58;;;15.32;;
21822;SDS011;11074;48.596;9.238;2023-03-01T08:34:17;25.83;;;15.63;;
21822;SDS011;11074;48.596;9.238;2023-03-01T08:36:44;26.67;;;15.75;;
21822;SDS011;11074;48.596;9.238;2023-03-01T08:39:15;26.77;;;16.13;;
21822;SDS011;11074;48.596;9.238;2023-03-01T08:41:43;24.65;;;14.77;;
21822;SDS011;11074;48.596;9.238;2023-03-01T08:44:09;25.65;;;15.32;;
21822;SDS011;11074;48.596;9.238;2023-03-01T08:46:39;21.83;;;15.00;;
21822;SDS011;11074;48.596;9.238;2023-03-01T08:49:11;24.88;;;15.65;;
21822;SDS011;11074;48.596;9.238;2023-03-01T08:51:40;27.58;;;16.42;;
21822;SDS011;11074;48.596;9.238;2023-03-01T08:54:10;25.80;;;15.38;;
21822;SDS011;11074;48.596;9.238;2023-03-01T08:56:44;26.13;;;15.60;;
21822;SDS011;11074;48.596;9.238;2023-03-01T08:59:11;28.27;;;15.93;;
21822;SDS011;11074;48.596;9.238;2023-03-01T09:01:39;24.33;;;15.88;;
21822;SDS011;11074;48.596;9.238;2023-03-01T09:04:08;22.55;;;14.25;;
21822;SDS011;11074;48.596;9.238;2023-03-01T09:06:35;27.25;;;16.38;;
21822;SDS011;11074;48.596;9.238;2023-03-01T09:09:01;24.27;;;14.35;;
21822;SDS011;11074;48.596;9.238;2023-03-01T09:11:28;23.05;;;15.65;;
21822;SDS011;11074;48.596;9.238;2023-03-01T09:13:54;23.92;;;15.45;;
21822;SDS011;11074;48.596;9.238;2023-03-01T09:16:21;26.77;;;15.55;;
21822;SDS011;11074;48.596;9.238;2023-03-01T09:18:48;26.85;;;16.17;;
21822;SDS011;11074;48.596;9.238;2023-03-01T09:21:19;25.85;;;15.45;;
21822;SDS011;11074;48.596;9.238;2023-03-01T09:23:48;25.15;;;16.10;;
21822;SDS011;11074;48.596;9.238;2023-03-01T09:26:16;24.52;;;15.55;;
21822;SDS011;11074;48.596;9.238;2023-03-01T09:28:47;26.75;;;15.35;;
21822;SDS011;11074;48.596;9.238;2023-03-01T09:31:21;21.65;;;14.48;;
21822;SDS011;11074;48.596;9.238;2023-03-01T09:33:50;26.48;;;16.38;;
21822;SDS011;11074;48.596;9.238;2023-03-01T09:36:19;22.67;;;15.07;;
21822;SDS011;11074;48.596;9.238;2023-03-01T09:38:47;24.17;;;15.10;;
21822;SDS011;11074;48.596;9.238;2023-03-01T09:43:46;22.48;;;14.98;;
21822;SDS011;11074;48.596;9.238;2023-03-01T09:46:20;26.95;;;15.73;;
21822;SDS011;11074;48.596;9.238;2023-03-01T09:48:50;29.48;;;16.67;;
21822;SDS011;11074;48.596;9.238;2023-03-01T09:51:27;24.65;;;15.18;;
21822;SDS011;11074;48.596;9.238;2023-03-01T09:53:57;21.70;;;13.98;;
21822;SDS011;11074;48.596;9.238;2023-03-01T10:04:44;25.33;;;16.33;;
21822;SDS011;11074;48.596;9.238;2023-03-01T10:10:31;22.60;;;14.63;;
21822;SDS011;11074;48.596;9.238;2023-03-01T10:13:04;25.58;;;16.73;;
21822;SDS011;11074;48.596;9.238;2023-03-01T10:15:47;22.80;;;14.70;;
21822;SDS011;11074;48.596;9.238;2023-03-01T10:18:38;22.27;;;14.75;;
21822;SDS011;11074;48.596;9.238;2023-03-01T10:21:17;23.98;;;15.35;;
21822;SDS011;11074;48.596;9.238;2023-03-01T10:23:44;25.65;;;16.85;;
21822;SDS011;11074;48.596;9.238;2023-03-01T10:26:18;23.52;;;14.93;;
21822;SDS011;11074;48.596;9.238;2023-03-01T10:29:10;23.60;;;14.52;;
21822;SDS011;11074;48.596;9.238;2023-03-01T10:34:16;23.67;;;15.77;;
21822;SDS011;11074;48.596;9.238;2023-03-01T10:36:57;20.73;;;13.95;;
21822;SDS011;11074;48.596;9.238;2023-03-01T10:42:46;20.58;;;13.60;;
21822;SDS011;11074;48.596;9.238;2023-03-01T10:45:27;22.90;;;13.25;;
21822;SDS011;11074;48.596;9.238;2023-03-01T10:50:44;27.65;;;15.40;;
21822;SDS011;11074;48.596;9.238;2023-03-01T10:53:20;22.42;;;14.38;;
21822;SDS011;11074;48.596;9.238;2023-03-01T10:58:34;22.75;;;14.80;;
21822;SDS011;11074;48.596;9.238;2023-03-01T11:01:03;21.10;;;14.27;;
21822;SDS011;11074;48.596;9.238;2023-03-01T11:04:07;21.25;;;14.15;;
21822;SDS011;11074;48.596;9.238;2023-03-01T11:06:39;21.95;;;14.45;;
21822;SDS011;11074;48.596;9.238;2023-03-01T11:09:20;23.80;;;13.88;;
21822;SDS011;11074;48.596;9.238;2023-03-01T11:11:55;22.77;;;14.07;;
21822;SDS011;11074;48.596;9.238;2023-03-01T11:14:25;20.13;;;14.30;;
21822;SDS011;11074;48.596;9.238;2023-03-01T11:16:58;21.65;;;13.52;;
21822;SDS011;11074;48.596;9.238;2023-03-01T11:19:37;19.92;;;14.20;;
21822;SDS011;11074;48.596;9.238;2023-03-01T11:24:46;20.55;;;13.63;;
21822;SDS011;11074;48.596;9.238;2023-03-01T11:27:23;21.00;;;13.70;;
21822;SDS011;11074;48.596;9.238;2023-03-01T11:29:55;21.33;;;13.50;;
21822;SDS011;11074;48.596;9.238;2023-03-01T11:33:33;20.92;;;12.95;;
21822;SDS011;11074;48.596;9.238;2023-03-01T11:35:33;21.33;;;13.55;;
21822;SDS011;11074;48.596;9.238;2023-03-01T11:41:00;23.83;;;13.10;;
21822;SDS011;11074;48.596;9.238;2023-03-01T11:46:35;20.85;;;13.57;;
21822;SDS011;11074;48.596;9.238;2023-03-01T11:59:03;19.98;;;13.20;;
21822;SDS011;11074;48.596;9.238;2023-03-01T12:07:49;18.10;;;12.38;;
21822;SDS011;11074;48.596;9.238;2023-03-01T12:10:40;22.08;;;12.68;;
21822;SDS011;11074;48.596;9.238;2023-03-01T12:19:01;21.35;;;12.82;;
21822;SDS011;11074;48.596;9.238;2023-03-01T12:25:13;19.67;;;12.43;;
21822;SDS011;11074;48.596;9.238;2023-03-01T12:28:07;20.27;;;11.93;;
21822;SDS011;11074;48.596;9.238;2023-03-01T12:34:19;18.38;;;11.70;;
21822;SDS011;11074;48.596;9.238;2023-03-01T12:40:13;19.38;;;12.57;;
21822;SDS011;11074;48.596;9.238;2023-03-01T12:51:32;19.60;;;11.70;;
21822;SDS011;11074;48.596;9.238;2023-03-01T12:54:02;19.70;;;12.05;;
21822;SDS011;11074;48.596;9.238;2023-03-01T12:56:40;19.63;;;12.77;;
21822;SDS011;11074;48.596;9.238;2023-03-01T13:01:49;18.58;;;12.57;;
21822;SDS011;11074;48.596;9.238;2023-03-01T13:08:33;20.65;;;13.70;;
21822;SDS011;11074;48.596;9.238;2023-03-01T13:11:19;21.60;;;14.15;;
21822;SDS011;11074;48.596;9.238;2023-03-01T13:13:47;21.17;;;13.43;;
21822;SDS011;11074;48.596;9.238;2023-03-01T13:19:16;20.17;;;13.07;;
21822;SDS011;11074;48.596;9.238;2023-03-01T13:21:54;20.88;;;13.15;;
21822;SDS011;11074;48.596;9.238;2023-03-01T13:24:23;18.00;;;12.45;;
21822;SDS011;11074;48.596;9.238;2023-03-01T13:29:30;19.15;;;12.82;;
21822;SDS011;11074;48.596;9.238;2023-03-01T13:32:28;17.45;;;12.48;;
21822;SDS011;11074;48.596;9.238;2023-03-01T13:35:03;17.88;;;12.20;;
21822;SDS011;11074;48.596;9.238;2023-03-01T13:42:54;19.90;;;13.57;;
21822;SDS011;11074;48.596;9.238;2023-03-01T13:45:38;19.20;;;12.73;;
21822;SDS011;11074;48.596;9.238;2023-03-01T13:48:29;20.90;;;13.15;;
21822;SDS011;11074;48.596;9.238;2023-03-01T13:50:58;18.63;;;13.13;;
21822;SDS011;11074;48.596;9.238;2023-03-01T13:53:34;19.75;;;13.68;;
21822;SDS011;11074;48.596;9.238;2023-03-01T13:56:17;17.75;;;12.63;;
21822;SDS011;11074;48.596;9.238;2023-03-01T13:58:50;21.88;;;13.77;;
21822;SDS011;11074;48.596;9.238;2023-03-01T14:01:40;18.65;;;12.95;;
21822;SDS011;11074;48.596;9.238;2023-03-01T14:04:21;18.77;;;12.65;;
21822;SDS011;11074;48.596;9.238;2023-03-01T14:09:55;19.15;;;12.70;;
21822;SDS011;11074;48.596;9.238;2023-03-01T14:20:38;16.60;;;12.15;;
21822;SDS011;11074;48.596;9.238;2023-03-01T14:23:29;17.42;;;12.23;;
21822;SDS011;11074;48.596;9.238;2023-03-01T14:25:54;16.63;;;12.32;;
21822;SDS011;11074;48.596;9.238;2023-03-01T14:28:26;18.05;;;12.68;;
21822;SDS011;11074;48.596;9.238;2023-03-01T14:30:59;18.52;;;12.50;;
21822;SDS011;11074;48.596;9.238;2023-03-01T14:33:30;16.60;;;11.90;;
21822;SDS011;11074;48.596;9.238;2023-03-01T14:36:09;20.55;;;12.55;;
21822;SDS011;11074;48.596;9.238;2023-03-01T14:38:44;20.35;;;12.27;;
21822;SDS011;11074;48.596;9.238;2023-03-01T14:41:14;17.17;;;11.65;;
21822;SDS011;11074;48.596;9.238;2023-03-01T14:43:46;18.42;;;12.02;;
21822;SDS011;11074;48.596;9.238;2023-03-01T14:46:25;19.43;;;11.60;;
21822;SDS011;11074;48.596;9.238;2023-03-01T14:49:02;18.15;;;11.88;;
21822;SDS011;11074;48.596;9.238;2023-03-01T14:51:40;17.08;;;12.02;;
21822;SDS011;11074;48.596;9.238;2023-03-01T14:54:19;15.40;;;11.18;;
21822;SDS011;11074;48.596;9.238;2023-03-01T14:56:50;16.63;;;12.27;;
21822;SDS011;11074;48.596;9.238;2023-03-01T14:59:22;17.48;;;12.38;;
21822;SDS011;11074;48.596;9.238;2023-03-01T15:01:49;15.40;;;11.55;;
21822;SDS011;11074;48.596;9.238;2023-03-01T15:04:18;16.55;;;12.82;;
21822;SDS011;11074;48.596;9.238;2023-03-01T15:06:47;17.77;;;12.18;;
21822;SDS011;11074;48.596;9.238;2023-03-01T15:09:17;16.45;;;12.20;;
21822;SDS011;11074;48.596;9.238;2023-03-01T15:11:45;16.85;;;12.63;;
21822;SDS011;11074;48.596;9.238;2023-03-01T15:14:38;18.45;;;12.88;;
21822;SDS011;11074;48.596;9.238;2023-03-01T15:19:59;19.17;;;12.85;;
21822;SDS011;11074;48.596;9.238;2023-03-01T15:22:29;18.88;;;12.68;;
21822;SDS011;11074;48.596;9.238;2023-03-01T15:24:55;18.48;;;13.00;;
21822;SDS011;11074;48.596;9.238;2023-03-01T15:27:22;18.80;;;13.18;;
21822;SDS011;11074;48.596;9.238;2023-03-01T15:29:53;19.90;;;13.43;;
21822;SDS011;11074;48.596;9.238;2023-03-01T15:34:56;21.45;;;13.77;;
21822;SDS011;11074;48.596;9.238;2023-03-01T15:40:17;22.73;;;13.80;;
21822;SDS011;11074;48.596;9.238;2023-03-01T15:42:44;20.55;;;13.07;;
21822;SDS011;11074;48.596;9.238;2023-03-01T15:47:46;18.13;;;13.23;;
21822;SDS011;11074;48.596;9.238;2023-03-01T15:50:22;17.75;;;12.70;;
21822;SDS011;11074;48.596;9.238;2023-03-01T15:53:05;17.30;;;12.32;;
21822;SDS011;11074;48.596;9.238;2023-03-01T15:55:36;18.05;;;12.75;;
21822;SDS011;11074;48.596;9.238;2023-03-01T15:58:03;19.85;;;13.10;;
21822;SDS011;11074;48.596;9.238;2023-03-01T16:00:43;17.92;;;12.52;;
21822;SDS011;11074;48.596;9.238;2023-03-01T16:03:12;18.75;;;12.90;;
21822;SDS011;11074;48.596;9.238;2023-03-01T16:05:38;19.80;;;12.57;;
21822;SDS011;11074;48.596;9.238;2023-03-01T16:08:04;20.95;;;13.10;;
21822;SDS011;11074;48.596;9.238;2023-03-01T16:10:31;18.58;;;12.77;;
21822;SDS011;11074;48.596;9.238;2023-03-01T16:12:58;19.30;;;12.55;;
21822;SDS011;11074;48.596;9.238;2023-03-01T16:15:27;18.55;;;12.40;;
21822;SDS011;11074;48.596;9.238;2023-03-01T16:17:59;17.83;;;11.82;;
21822;SDS011;11074;48.596;9.238;2023-03-01T16:20:25;16.88;;;12.20;;
21822;SDS011;11074;48.596;9.238;2023-03-01T16:22:53;18.42;;;11.85;;
21822;SDS011;11074;48.596;9.238;2023-03-01T16:25:19;19.20;;;11.73;;
21822;SDS011;11074;48.596;9.238;2023-03-01T16:27:47;19.10;;;12.45;;
21822;SDS011;11074;48.596;9.238;2023-03-01T16:30:16;16.73;;;11.52;;
21822;SDS011;11074;48.596;9.238;2023-03-01T16:32:46;20.23;;;11.75;;
21822;SDS011;11074;48.596;9.238;2023-03-01T16:35:14;22.25;;;13.05;;
21822;SDS011;11074;48.596;9.238;2023-03-01T16:37:45;18.75;;;12.18;;
21822;SDS011;11074;48.596;9.238;2023-03-01T16:40:16;17.42;;;12.10;;
21822;SDS011;11074;48.596;9.238;2023-03-01T16:42:46;17.65;;;11.95;;
21822;SDS011;11074;48.596;9.238;2023-03-01T16:45:15;17.35;;;11.98;;
21822;SDS011;11074;48.596;9.238;2023-03-01T16:47:43;19.33;;;12.25;;
21822;SDS011;11074;48.596;9.238;2023-03-01T16:50:09;18.48;;;11.88;;
21822;SDS011;11074;48.596;9.238;2023-03-01T16:52:35;18.48;;;12.88;;
21822;SDS011;11074;48.596;9.238;2023-03-01T16:55:03;19.30;;;12.23;;
21822;SDS011;11074;48.596;9.238;2023-03-01T16:57:35;24.52;;;17.73;;
21822;SDS011;11074;48.596;9.238;2023-03-01T17:00:03;20.52;;;12.32;;
21822;SDS011;11074;48.596;9.238;2023-03-01T17:02:37;20.88;;;12.25;;
21822;SDS011;11074;48.596;9.238;2023-03-01T17:05:06;18.58;;;12.52;;
21822;SDS011;11074;48.596;9.238;2023-03-01T17:07:35;22.75;;;12.55;;